sensor_id;sensor_type;location;lat;lon;timestamp;pressure;altitude;pressure_sealevel;temperature;humidity
3206;BME280;1615;53.602;11.418;2023-03-16T00:02:00;101473.22;;;1.65;100.00
3206;BME280;1615;53.602;11.418;2023-03-16T00:04:25;101644.97;;;2.67;100.00
3206;BME280;1615;53.602;11.418;2023-03-16T00:06:50;101642.44;;;2.72;100.00
3206;BME280;1615;53.602;11.418;2023-03-16T00:09:19;101649.03;;;2.76;100.00
3206;BME280;1615;53.602;11.418;2023-03-16T00:11:44;101649.88;;;2.76;100.00
3206;BME280;1615;53.602;11.418;2023-03-16T00:14:09;101655.06;;;2.78;100.00
3206;BME280;1615;53.602;11.418;2023-03-16T00:16:37;101649.88;;;2.76;100.00
3206;BME280;1615;53.602;11.418;2023-03-16T00:19:02;101651.91;;;2.81;100.00
3206;BME280;1615;53.602;11.418;2023-03-16T00:21:29;101644.84;;;2.80;100.00
3206;BME280;1615;53.602;11.418;2023-03-16T00:23:56;101646.13;;;2.77;100.00
3206;BME280;1615;53.602;11.418;2023-03-16T00:26:22;101648.16;;;2.82;100.00
3206;BME280;1615;53.602;11.418;2023-03-16T00:28:47;101647.38;;;2.75;100.00
3206;BME280;1615;53.602;11.418;2023-03-16T00:31:13;101662.78;;;2.74;100.00
3206;BME280;1615;53.602;11.418;2023-03-16T00:33:39;101656.38;;;2.69;100.00
3206;BME280;1615;53.602;11.418;2023-03-16T00:36:07;101654.09;;;2.66;100.00
3206;BME280;1615;53.602;11.418;2023-03-16T00:38:35;101632.56;;;2.53;100.00
3206;BME280;1615;53.602;11.418;2023-03-16T00:41:05;101661.41;;;2.65;100.00
3206;BME280;1615;53.602;11.418;2023-03-16T00:43:32;101653.72;;;2.62;100.00
3206;BME280;1615;53.602;11.418;2023-03-16T00:46:06;101650.19;;;2.62;100.00
3206;BME280;1615;53.602;11.418;2023-03-16T00:48:33;101659.13;;;2.62;100.00
3206;BME280;1615;53.602;11.418;2023-03-16T00:51:02;101661.63;;;2.64;100.00
3206;BME280;1615;53.602;11.418;2023-03-16T00:53:31;101661.66;;;2.57;100.00
3206;BME280;1615;53.602;11.418;2023-03-16T00:55:56;101666.69;;;2.54;100.00
3206;BME280;1615;53.602;11.418;2023-03-16T00:58:22;101667.91;;;2.58;100.00
3206;BME280;1615;53.602;11.418;2023-03-16T01:00:48;101692.34;;;2.45;100.00
3206;BME280;1615;53.602;11.418;2023-03-16T01:03:15;101672.06;;;2.60;100.00
3206;BME280;1615;53.602;11.418;2023-03-16T01:05:41;101674.59;;;2.55;100.00
3206;BME280;1615;53.602;11.418;2023-03-16T01:08:07;101667.31;;;2.56;100.00
3206;BME280;1615;53.602;11.418;2023-03-16T01:10:34;101668.34;;;2.55;100.00
3206;BME280;1615;53.602;11.418;2023-03-16T01:13:02;101657.41;;;2.06;100.00
3206;BME280;1615;53.602;11.418;2023-03-16T01:15:29;101666.69;;;2.54;100.00
3206;BME280;1615;53.602;11.418;2023-03-16T01:17:54;101646.03;;;2.35;100.00
3206;BME280;1615;53.602;11.418;2023-03-16T01:20:20;101669.84;;;2.51;100.00
3206;BME280;1615;53.602;11.418;2023-03-16T01:22:45;101653.88;;;2.43;100.00
3206;BME280;1615;53.602;11.418;2023-03-16T01:25:11;101664.44;;;2.51;100.00
3206;BME280;1615;53.602;11.418;2023-03-16T01:27:37;101650.56;;;2.41;100.00
3206;BME280;1615;53.602;11.418;2023-03-16T01:30:04;101668.63;;;2.47;100.00
3206;BME280;1615;53.602;11.418;2023-03-16T01:32:32;101700.47;;;2.45;100.00
3206;BME280;1615;53.602;11.418;2023-03-16T01:34:58;101668.16;;;2.50;100.00
3206;BME280;1615;53.602;11.418;2023-03-16T01:37:23;101669.00;;;2.50;100.00
3206;BME280;1615;53.602;11.418;2023-03-16T01:39:48;101668.41;;;2.48;100.00
3206;BME280;1615;53.602;11.418;2023-03-16T01:42:14;101665.28;;;2.45;100.00
3206;BME280;1615;53.602;11.418;2023-03-16T01:44:57;101630.91;;;2.21;100.00
3206;BME280;1615;53.602;11.418;2023-03-16T01:47:25;101663.03;;;2.42;100.00
3206;BME280;1615;53.602;11.418;2023-03-16T01:49:53;101502.88;;;1.40;100.00
3206;BME280;1615;53.602;11.418;2023-03-16T01:52:23;101667.88;;;2.33;100.00
3206;BME280;1615;53.602;11.418;2023-03-16T01:55:09;101667.66;;;2.35;100.00
3206;BME280;1615;53.602;11.418;2023-03-16T01:57:39;101660.34;;;2.42;100.00
3206;BME280;1615;53.602;11.418;2023-03-16T02:00:10;101665.34;;;2.38;100.00
3206;BME280;1615;53.602;11.418;2023-03-16T02:02:45;101666.00;;;2.34;100.00
3206;BME280;1615;53.602;11.418;2023-03-16T02:05:22;101666.16;;;2.39;100.00
3206;BME280;1615;53.602;11.418;2023-03-16T02:07:50;101669.31;;;2.36;100.00
3206;BME280;1615;53.602;11.418;2023-03-16T02:10:18;101668.94;;;2.32;100.00
3206;BME280;1615;53.602;11.418;2023-03-16T02:12:44;101534.66;;;1.45;100.00
3206;BME280;1615;53.602;11.418;2023-03-16T02:15:11;101630.81;;;2.03;100.00
3206;BME280;1615;53.602;11.418;2023-03-16T02:17:38;101668.97;;;2.26;100.00
3206;BME280;1615;53.602;11.418;2023-03-16T02:22:33;101672.75;;;2.18;100.00
3206;BME280;1615;53.602;11.418;2023-03-16T02:25:00;101680.22;;;2.23;100.00
3206;BME280;1615;53.602;11.418;2023-03-16T02:27:45;101677.31;;;2.18;100.00
3206;BME280;1615;53.602;11.418;2023-03-16T02:30:15;101679.41;;;2.16;100.00
3206;BME280;1615;53.602;11.418;2023-03-16T02:32:41;101537.19;;;1.33;100.00
3206;BME280;1615;53.602;11.418;2023-03-16T02:35:08;101682.72;;;2.18;100.00
3206;BME280;1615;53.602;11.418;2023-03-16T02:37:34;101575.59;;;1.42;100.00
3206;BME280;1615;53.602;11.418;2023-03-16T02:40:12;101555.72;;;1.30;100.00
3206;BME280;1615;53.602;11.418;2023-03-16T02:42:41;101684.44;;;2.12;100.00
3206;BME280;1615;53.602;11.418;2023-03-16T02:45:07;101682.72;;;2.18;100.00
3206;BME280;1615;53.602;11.418;2023-03-16T02:47:39;101681.81;;;2.30;100.00
3206;BME280;1615;53.602;11.418;2023-03-16T02:50:06;101680.91;;;2.43;100.00
3206;BME280;1615;53.602;11.418;2023-03-16T02:52:36;101686.31;;;2.49;100.00
3206;BME280;1615;53.602;11.418;2023-03-16T02:55:06;101682.94;;;2.54;100.00
3206;BME280;1615;53.602;11.418;2023-03-16T02:57:31;101661.97;;;2.43;100.00
3206;BME280;1615;53.602;11.418;2023-03-16T02:59:57;101703.84;;;2.40;100.00
3206;BME280;1615;53.602;11.418;2023-03-16T03:02:22;101679.97;;;2.31;100.00
3206;BME280;1615;53.602;11.418;2023-03-16T03:04:48;101678.31;;;2.30;100.00
3206;BME280;1615;53.602;11.418;2023-03-16T03:07:13;101685.19;;;2.26;100.00
3206;BME280;1615;53.602;11.418;2023-03-16T03:09:42;101687.31;;;2.24;100.00
3206;BME280;1615;53.602;11.418;2023-03-16T03:12:08;101679.97;;;2.31;100.00
3206;BME280;1615;53.602;11.418;2023-03-16T03:14:35;101679.69;;;2.39;100.00
3206;BME280;1615;53.602;11.418;2023-03-16T03:17:03;101677.25;;;2.31;100.00
3206;BME280;1615;53.602;11.418;2023-03-16T03:19:29;101618.59;;;1.94;100.00
3206;BME280;1615;53.602;11.418;2023-03-16T03:21:54;101652.13;;;2.24;100.00
3206;BME280;1615;53.602;11.418;2023-03-16T03:24:22;101688.00;;;2.44;100.00
3206;BME280;1615;53.602;11.418;2023-03-16T03:26:47;101686.50;;;2.48;100.00
3206;BME280;1615;53.602;11.418;2023-03-16T03:29:13;101688.56;;;2.52;100.00
3206;BME280;1615;53.602;11.418;2023-03-16T03:31:38;101685.03;;;2.52;100.00
3206;BME280;1615;53.602;11.418;2023-03-16T03:34:03;101674.00;;;2.53;100.00
3206;BME280;1615;53.602;11.418;2023-03-16T03:36:31;101679.41;;;2.53;100.00
3206;BME280;1615;53.602;11.418;2023-03-16T03:38:56;101676.28;;;2.50;100.00
3206;BME280;1615;53.602;11.418;2023-03-16T03:41:21;101679.88;;;2.44;100.00
3206;BME280;1615;53.602;11.418;2023-03-16T03:43:47;101680.72;;;2.44;100.00
3206;BME280;1615;53.602;11.418;2023-03-16T03:46:12;101679.88;;;2.44;100.00
3206;BME280;1615;53.602;11.418;2023-03-16T03:48:37;101688.63;;;2.46;100.00
3206;BME280;1615;53.602;11.418;2023-03-16T03:51:03;101678.41;;;2.48;100.00
3206;BME280;1615;53.602;11.418;2023-03-16T03:53:29;101683.03;;;2.41;100.00
3206;BME280;1615;53.602;11.418;2023-03-16T03:55:55;101686.81;;;2.33;100.00
3206;BME280;1615;53.602;11.418;2023-03-16T03:58:20;101623.75;;;2.02;100.00
3206;BME280;1615;53.602;11.418;2023-03-16T04:00:45;101684.09;;;2.40;100.00
3206;BME280;1615;53.602;11.418;2023-03-16T04:03:11;101685.09;;;2.39;100.00
3206;BME280;1615;53.602;11.418;2023-03-16T04:05:36;101675.97;;;2.40;100.00
3206;BME280;1615;53.602;11.418;2023-03-16T04:08:01;101671.75;;;2.44;100.00
3206;BME280;1615;53.602;11.418;2023-03-16T04:10:29;101667.59;;;2.41;100.00
3206;BME280;1615;53.602;11.418;2023-03-16T04:12:55;101684.09;;;2.40;100.00
3206;BME280;1615;53.602;11.418;2023-03-16T04:15:21;101675.97;;;2.40;100.00
3206;BME280;1615;53.602;11.418;2023-03-16T04:17:47;101680.16;;;2.36;100.00
3206;BME280;1615;53.602;11.418;2023-03-16T04:20:13;101694.09;;;2.33;100.00
3206;BME280;1615;53.602;11.418;2023-03-16T04:22:44;101621.91;;;1.96;100.00
3206;BME280;1615;53.602;11.418;2023-03-16T04:25:10;101714.50;;;2.29;100.00
3206;BME280;1615;53.602;11.418;2023-03-16T04:27:36;101510.28;;;1.20;100.00
3206;BME280;1615;53.602;11.418;2023-03-16T04:30:06;101671.97;;;2.11;100.00
3206;BME280;1615;53.602;11.418;2023-03-16T04:32:32;101687.72;;;2.21;100.00
3206;BME280;1615;53.602;11.418;2023-03-16T04:34:58;101695.22;;;2.19;100.00
3206;BME280;1615;53.602;11.418;2023-03-16T04:37:23;101691.09;;;2.16;100.00
3206;BME280;1615;53.602;11.418;2023-03-16T04:39:49;101671.38;;;2.03;100.00
3206;BME280;1615;53.602;11.418;2023-03-16T04:42:14;101652.97;;;1.87;100.00
3206;BME280;1615;53.602;11.418;2023-03-16T04:44:39;101694.00;;;2.15;100.00
3206;BME280;1615;53.602;11.418;2023-03-16T04:47:12;101582.44;;;1.51;100.00
3206;BME280;1615;53.602;11.418;2023-03-16T04:49:37;101687.94;;;2.13;100.00
3206;BME280;1615;53.602;11.418;2023-03-16T04:52:03;101632.16;;;1.81;100.00
3206;BME280;1615;53.602;11.418;2023-03-16T04:54:30;101545.97;;;1.29;100.00
3206;BME280;1615;53.602;11.418;2023-03-16T04:56:55;101634.72;;;1.76;100.00
3206;BME280;1615;53.602;11.418;2023-03-16T04:59:20;101695.22;;;2.19;100.00
3206;BME280;1615;53.602;11.418;2023-03-16T05:01:45;101698.53;;;2.21;100.00
3206;BME280;1615;53.602;11.418;2023-03-16T05:04:12;101725.59;;;2.21;100.00
3206;BME280;1615;53.602;11.418;2023-03-16T05:06:37;101718.13;;;2.16;100.00
3206;BME280;1615;53.602;11.418;2023-03-16T05:09:03;101711.47;;;2.19;100.00
3206;BME280;1615;53.602;11.418;2023-03-16T05:11:30;101709.34;;;2.21;100.00
3206;BME280;1615;53.602;11.418;2023-03-16T05:13:55;101695.81;;;2.27;100.00
3206;BME280;1615;53.602;11.418;2023-03-16T05:16:20;101698.13;;;2.24;100.00
3206;BME280;1615;53.602;11.418;2023-03-16T05:18:46;101722.50;;;2.11;100.00
3206;BME280;1615;53.602;11.418;2023-03-16T05:21:11;101707.72;;;2.13;100.00
3206;BME280;1615;53.602;11.418;2023-03-16T05:23:36;101711.47;;;2.19;100.00
3206;BME280;1615;53.602;11.418;2023-03-16T05:26:02;101715.28;;;1.98;100.00
3206;BME280;1615;53.602;11.418;2023-03-16T05:28:27;101712.34;;;2.06;100.00
3206;BME280;1615;53.602;11.418;2023-03-16T05:30:52;101708.78;;;2.06;100.00
3206;BME280;1615;53.602;11.418;2023-03-16T05:33:18;101718.94;;;2.17;100.00
3206;BME280;1615;53.602;11.418;2023-03-16T05:35:43;101717.63;;;2.32;100.00
3206;BME280;1615;53.602;11.418;2023-03-16T05:38:08;101715.31;;;2.36;100.00
3206;BME280;1615;53.602;11.418;2023-03-16T05:40:34;101719.66;;;2.37;100.00
3206;BME280;1615;53.602;11.418;2023-03-16T05:43:01;101715.03;;;2.44;100.00
3206;BME280;1615;53.602;11.418;2023-03-16T05:45:27;101710.88;;;2.48;100.00
3206;BME280;1615;53.602;11.418;2023-03-16T05:47:52;101712.09;;;2.52;100.00
3206;BME280;1615;53.602;11.418;2023-03-16T05:50:18;101552.03;;;1.62;100.00
3206;BME280;1615;53.602;11.418;2023-03-16T05:52:44;101727.44;;;2.64;100.00
3206;BME280;1615;53.602;11.418;2023-03-16T05:55:11;101720.94;;;2.72;100.00
3206;BME280;1615;53.602;11.418;2023-03-16T05:57:37;101719.38;;;2.82;100.00
3206;BME280;1615;53.602;11.418;2023-03-16T06:00:10;101721.06;;;2.77;100.00
3206;BME280;1615;53.602;11.418;2023-03-16T06:02:45;101726.09;;;2.73;100.00
3206;BME280;1615;53.602;11.418;2023-03-16T06:05:15;101720.03;;;2.78;100.00
3206;BME280;1615;53.602;11.418;2023-03-16T06:07:40;101731.09;;;2.76;100.00
3206;BME280;1615;53.602;11.418;2023-03-16T06:10:07;101729.25;;;2.70;100.00
3206;BME280;1615;53.602;11.418;2023-03-16T06:12:32;101737.81;;;2.67;100.00
3206;BME280;1615;53.602;11.418;2023-03-16T06:14:59;101651.25;;;2.30;100.00
3206;BME280;1615;53.602;11.418;2023-03-16T06:17:25;101692.41;;;2.69;100.00
3206;BME280;1615;53.602;11.418;2023-03-16T06:19:50;101683.25;;;2.70;100.00
3206;BME280;1615;53.602;11.418;2023-03-16T06:22:15;101739.19;;;3.07;100.00
3206;BME280;1615;53.602;11.418;2023-03-16T06:24:42;101742.00;;;3.19;100.00
3206;BME280;1615;53.602;11.418;2023-03-16T06:27:07;101734.03;;;3.24;100.00
3206;BME280;1615;53.602;11.418;2023-03-16T06:29:33;101744.81;;;3.30;100.00
3206;BME280;1615;53.602;11.418;2023-03-16T06:31:58;101743.13;;;3.36;100.00
3206;BME280;1615;53.602;11.418;2023-03-16T06:34:24;101758.88;;;3.45;100.00
3206;BME280;1615;53.602;11.418;2023-03-16T06:36:49;101754.16;;;3.59;100.00
3206;BME280;1615;53.602;11.418;2023-03-16T06:39:15;101759.06;;;3.68;100.00
3206;BME280;1615;53.602;11.418;2023-03-16T06:41:40;101752.56;;;3.69;100.00
3206;BME280;1615;53.602;11.418;2023-03-16T06:44:07;101683.94;;;3.33;100.00
3206;BME280;1615;53.602;11.418;2023-03-16T06:46:32;101753.25;;;3.83;100.00
3206;BME280;1615;53.602;11.418;2023-03-16T06:48:58;101746.13;;;3.88;100.00
3206;BME280;1615;53.602;11.418;2023-03-16T06:51:25;101748.16;;;3.93;100.00
3206;BME280;1615;53.602;11.418;2023-03-16T06:53:50;101756.28;;;3.93;100.00
3206;BME280;1615;53.602;11.418;2023-03-16T06:56:16;101757.28;;;3.98;100.00
3206;BME280;1615;53.602;11.418;2023-03-16T06:58:41;101742.13;;;4.09;100.00
3206;BME280;1615;53.602;11.418;2023-03-16T07:01:06;101743.00;;;4.21;100.00
3206;BME280;1615;53.602;11.418;2023-03-16T07:03:31;101738.78;;;4.25;100.00
3206;BME280;1615;53.602;11.418;2023-03-16T07:05:57;101726.50;;;4.22;100.00
3206;BME280;1615;53.602;11.418;2023-03-16T07:08:22;101698.56;;;4.04;100.00
3206;BME280;1615;53.602;11.418;2023-03-16T07:10:49;101647.50;;;3.83;100.00
3206;BME280;1615;53.602;11.418;2023-03-16T07:13:15;101738.06;;;4.47;100.00
3206;BME280;1615;53.602;11.418;2023-03-16T07:15:41;101745.06;;;4.55;100.00
3206;BME280;1615;53.602;11.418;2023-03-16T07:18:06;101738.63;;;4.67;100.00
3206;BME280;1615;53.602;11.418;2023-03-16T07:20:31;101751.66;;;4.77;100.00
3206;BME280;1615;53.602;11.418;2023-03-16T07:22:57;101751.78;;;4.82;100.00
3206;BME280;1615;53.602;11.418;2023-03-16T07:25:22;101729.69;;;4.78;100.00
3206;BME280;1615;53.602;11.418;2023-03-16T07:27:48;101752.91;;;5.04;100.00
3206;BME280;1615;53.602;11.418;2023-03-16T07:30:13;101748.19;;;5.11;100.00
3206;BME280;1615;53.602;11.418;2023-03-16T07:32:42;101746.56;;;5.21;100.00
3206;BME280;1615;53.602;11.418;2023-03-16T07:35:08;101690.16;;;4.94;100.00
3206;BME280;1615;53.602;11.418;2023-03-16T07:37:35;101748.34;;;5.39;100.00
3206;BME280;1615;53.602;11.418;2023-03-16T07:40:01;101725.41;;;5.35;100.00
3206;BME280;1615;53.602;11.418;2023-03-16T07:42:27;101745.06;;;5.60;100.00
3206;BME280;1615;53.602;11.418;2023-03-16T07:44:53;101755.22;;;5.76;100.00
3206;BME280;1615;53.602;11.418;2023-03-16T07:47:18;101759.00;;;5.98;100.00
3206;BME280;1615;53.602;11.418;2023-03-16T07:49:43;101762.53;;;6.10;100.00
3206;BME280;1615;53.602;11.418;2023-03-16T07:52:09;101759.94;;;6.15;100.00
3206;BME280;1615;53.602;11.418;2023-03-16T07:54:38;101768.06;;;6.26;100.00
3206;BME280;1615;53.602;11.418;2023-03-16T07:57:03;101775.13;;;6.39;100.00
3206;BME280;1615;53.602;11.418;2023-03-16T07:59:29;101768.69;;;6.56;100.00
3206;BME280;1615;53.602;11.418;2023-03-16T08:01:54;101775.63;;;6.64;100.00
3206;BME280;1615;53.602;11.418;2023-03-16T08:04:19;101717.94;;;6.39;100.00
3206;BME280;1615;53.602;11.418;2023-03-16T08:06:44;101772.28;;;6.73;100.00
3206;BME280;1615;53.602;11.418;2023-03-16T08:09:10;101774.28;;;6.78;100.00
3206;BME280;1615;53.602;11.418;2023-03-16T08:11:35;101749.56;;;6.68;100.00
3206;BME280;1615;53.602;11.418;2023-03-16T08:14:01;101694.38;;;6.44;100.00
3206;BME280;1615;53.602;11.418;2023-03-16T08:16:26;101777.56;;;7.08;100.00
3206;BME280;1615;53.602;11.418;2023-03-16T08:18:54;101778.56;;;7.18;100.00
3206;BME280;1615;53.602;11.418;2023-03-16T08:21:21;101783.84;;;7.25;100.00
3206;BME280;1615;53.602;11.418;2023-03-16T08:23:46;101781.81;;;7.32;100.00
3206;BME280;1615;53.602;11.418;2023-03-16T08:26:17;101788.34;;;7.31;100.00
3206;BME280;1615;53.602;11.418;2023-03-16T08:28:44;101774.63;;;7.26;100.00
3206;BME280;1615;53.602;11.418;2023-03-16T08:31:13;101781.22;;;7.13;100.00
3206;BME280;1615;53.602;11.418;2023-03-16T08:33:40;101799.06;;;7.21;100.00
3206;BME280;1615;53.602;11.418;2023-03-16T08:36:07;101779.81;;;7.27;100.00
3206;BME280;1615;53.602;11.418;2023-03-16T08:38:33;101782.22;;;7.40;100.00
3206;BME280;1615;53.602;11.418;2023-03-16T08:40:59;101780.41;;;7.46;100.00
3206;BME280;1615;53.602;11.418;2023-03-16T08:43:25;101794.28;;;7.61;100.00
3206;BME280;1615;53.602;11.418;2023-03-16T08:45:51;101657.44;;;6.98;100.00
3206;BME280;1615;53.602;11.418;2023-03-16T08:48:18;101788.78;;;7.94;100.00
3206;BME280;1615;53.602;11.418;2023-03-16T08:50:44;101792.44;;;7.83;100.00
3206;BME280;1615;53.602;11.418;2023-03-16T08:53:11;101790.13;;;7.91;100.00
3206;BME280;1615;53.602;11.418;2023-03-16T08:55:38;101788.69;;;8.05;100.00
3206;BME280;1615;53.602;11.418;2023-03-16T08:58:05;101633.81;;;7.20;100.00
3206;BME280;1615;53.602;11.418;2023-03-16T09:00:30;101783.38;;;8.32;100.00
3206;BME280;1615;53.602;11.418;2023-03-16T09:02:56;101780.50;;;8.43;100.00
3206;BME280;1615;53.602;11.418;2023-03-16T09:05:22;101778.91;;;8.47;100.00
3206;BME280;1615;53.602;11.418;2023-03-16T09:07:47;101789.59;;;8.49;100.00
3206;BME280;1615;53.602;11.418;2023-03-16T09:10:13;101778.72;;;8.54;100.00
3206;BME280;1615;53.602;11.418;2023-03-16T09:12:41;101777.47;;;8.66;100.00
3206;BME280;1615;53.602;11.418;2023-03-16T09:15:07;101774.13;;;8.81;100.00
3206;BME280;1615;53.602;11.418;2023-03-16T09:17:34;101772.03;;;8.93;100.00
3206;BME280;1615;53.602;11.418;2023-03-16T09:20:00;101772.97;;;9.03;100.00
3206;BME280;1615;53.602;11.418;2023-03-16T09:22:26;101769.53;;;9.13;100.00
3206;BME280;1615;53.602;11.418;2023-03-16T09:24:52;101777.72;;;9.13;99.71
3206;BME280;1615;53.602;11.418;2023-03-16T09:27:18;101769.25;;;9.14;99.91
3206;BME280;1615;53.602;11.418;2023-03-16T09:29:44;101791.47;;;9.18;99.11
3206;BME280;1615;53.602;11.418;2023-03-16T09:32:11;101761.38;;;9.18;97.52
3206;BME280;1615;53.602;11.418;2023-03-16T09:34:36;101748.44;;;9.13;97.54
3206;BME280;1615;53.602;11.418;2023-03-16T09:37:02;101754.91;;;9.29;97.21
3206;BME280;1615;53.602;11.418;2023-03-16T09:39:27;101754.41;;;9.37;95.93
3206;BME280;1615;53.602;11.418;2023-03-16T09:46:56;101745.19;;;9.48;92.30
3206;BME280;1615;53.602;11.418;2023-03-16T09:49:27;101750.91;;;9.46;89.71
3206;BME280;1615;53.602;11.418;2023-03-16T09:54:38;101753.81;;;9.66;87.38
3206;BME280;1615;53.602;11.418;2023-03-16T09:57:16;101756.31;;;9.73;85.98
3206;BME280;1615;53.602;11.418;2023-03-16T09:59:48;101756.13;;;9.84;83.91
3206;BME280;1615;53.602;11.418;2023-03-16T10:13:04;101756.50;;;9.98;77.92
3206;BME280;1615;53.602;11.418;2023-03-16T10:15:37;101752.19;;;9.70;72.07
3206;BME280;1615;53.602;11.418;2023-03-16T10:18:15;101753.72;;;9.93;73.18
3206;BME280;1615;53.602;11.418;2023-03-16T10:20:42;101755.50;;;10.09;71.86
3206;BME280;1615;53.602;11.418;2023-03-16T10:23:17;101749.38;;;10.02;69.19
3206;BME280;1615;53.602;11.418;2023-03-16T10:25:48;101746.22;;;10.20;66.26
3206;BME280;1615;53.602;11.418;2023-03-16T10:28:21;101750.97;;;9.93;66.22
3206;BME280;1615;53.602;11.418;2023-03-16T10:30:49;101749.91;;;9.99;66.57
3206;BME280;1615;53.602;11.418;2023-03-16T10:33:41;101742.19;;;10.37;69.53
3206;BME280;1615;53.602;11.418;2023-03-16T10:36:13;101730.59;;;10.20;65.37
3206;BME280;1615;53.602;11.418;2023-03-16T10:41:18;101742.13;;;10.22;65.14
3206;BME280;1615;53.602;11.418;2023-03-16T10:43:50;101747.13;;;10.40;65.43
3206;BME280;1615;53.602;11.418;2023-03-16T10:46:18;101733.66;;;10.29;62.49
3206;BME280;1615;53.602;11.418;2023-03-16T10:48:58;101736.38;;;10.29;57.61
3206;BME280;1615;53.602;11.418;2023-03-16T10:51:32;101729.53;;;10.31;57.41
3206;BME280;1615;53.602;11.418;2023-03-16T10:54:08;101720.50;;;10.31;56.23
3206;BME280;1615;53.602;11.418;2023-03-16T10:56:38;101686.34;;;9.50;55.93
3206;BME280;1615;53.602;11.418;2023-03-16T10:59:27;101723.75;;;10.23;55.60
3206;BME280;1615;53.602;11.418;2023-03-16T11:01:53;101727.91;;;10.30;55.85
3206;BME280;1615;53.602;11.418;2023-03-16T11:04:19;101713.59;;;10.13;55.25
3206;BME280;1615;53.602;11.418;2023-03-16T11:06:52;101611.97;;;9.12;53.26
3206;BME280;1615;53.602;11.418;2023-03-16T11:09:38;101666.75;;;9.63;54.26
3206;BME280;1615;53.602;11.418;2023-03-16T11:12:18;101719.94;;;10.24;52.07
3206;BME280;1615;53.602;11.418;2023-03-16T11:14:46;101717.78;;;10.31;49.13
3206;BME280;1615;53.602;11.418;2023-03-16T11:17:20;101717.28;;;10.49;49.04
3206;BME280;1615;53.602;11.418;2023-03-16T11:19:51;101698.13;;;10.64;47.34
3206;BME280;1615;53.602;11.418;2023-03-16T11:22:19;101698.19;;;10.89;47.59
3206;BME280;1615;53.602;11.418;2023-03-16T11:27:24;101690.50;;;10.96;46.52
3206;BME280;1615;53.602;11.418;2023-03-16T11:30:04;101691.59;;;11.00;43.81
3206;BME280;1615;53.602;11.418;2023-03-16T11:32:51;101683.38;;;10.95;44.05
3206;BME280;1615;53.602;11.418;2023-03-16T11:35:27;101697.06;;;10.85;41.53
3206;BME280;1615;53.602;11.418;2023-03-16T11:38:12;101697.63;;;10.72;42.83
3206;BME280;1615;53.602;11.418;2023-03-16T11:41:02;101690.47;;;10.71;43.01
3206;BME280;1615;53.602;11.418;2023-03-16T11:46:28;101687.47;;;10.87;42.40
3206;BME280;1615;53.602;11.418;2023-03-16T11:54:51;101567.88;;;10.71;43.70
3206;BME280;1615;53.602;11.418;2023-03-16T12:06:16;101645.78;;;11.05;42.08
3206;BME280;1615;53.602;11.418;2023-03-16T12:11:45;101620.00;;;10.96;40.68
3206;BME280;1615;53.602;11.418;2023-03-16T12:14:26;101620.28;;;10.95;41.26
3206;BME280;1615;53.602;11.418;2023-03-16T12:17:02;101621.38;;;10.84;42.54
3206;BME280;1615;53.602;11.418;2023-03-16T12:22:16;101612.31;;;11.08;43.66
3206;BME280;1615;53.602;11.418;2023-03-16T12:24:47;101608.47;;;10.99;42.96
3206;BME280;1615;53.602;11.418;2023-03-16T12:27:17;101615.59;;;10.70;43.15
3206;BME280;1615;53.602;11.418;2023-03-16T12:35:05;101496.31;;;10.28;43.97
3206;BME280;1615;53.602;11.418;2023-03-16T12:37:42;101615.88;;;10.64;43.45
3206;BME280;1615;53.602;11.418;2023-03-16T12:40:24;101609.84;;;10.87;44.97
3206;BME280;1615;53.602;11.418;2023-03-16T12:45:55;101598.84;;;10.97;46.78
3206;BME280;1615;53.602;11.418;2023-03-16T12:48:30;101598.84;;;10.97;45.80
3206;BME280;1615;53.602;11.418;2023-03-16T12:51:00;101589.00;;;11.01;46.00
3206;BME280;1615;53.602;11.418;2023-03-16T12:56:11;101578.28;;;10.94;47.52
3206;BME280;1615;53.602;11.418;2023-03-16T12:58:57;101524.84;;;10.57;46.41
3206;BME280;1615;53.602;11.418;2023-03-16T13:01:48;101569.78;;;11.01;46.92
3206;BME280;1615;53.602;11.418;2023-03-16T13:04:17;101565.31;;;11.30;48.38
3206;BME280;1615;53.602;11.418;2023-03-16T13:06:51;101573.91;;;11.03;48.65
3206;BME280;1615;53.602;11.418;2023-03-16T13:09:27;101574.69;;;11.09;49.73
3206;BME280;1615;53.602;11.418;2023-03-16T13:11:53;101569.75;;;11.21;49.19
3206;BME280;1615;53.602;11.418;2023-03-16T13:14:47;101571.66;;;11.20;47.62
3206;BME280;1615;53.602;11.418;2023-03-16T13:22:45;101404.25;;;9.92;42.63
3206;BME280;1615;53.602;11.418;2023-03-16T13:27:57;101494.16;;;10.35;40.42
3206;BME280;1615;53.602;11.418;2023-03-16T13:30:27;101542.34;;;10.86;40.85
3206;BME280;1615;53.602;11.418;2023-03-16T13:32:55;101506.19;;;10.64;40.96
3206;BME280;1615;53.602;11.418;2023-03-16T13:35:26;101542.38;;;10.66;41.14
3206;BME280;1615;53.602;11.418;2023-03-16T13:37:53;101542.09;;;10.72;40.94
3206;BME280;1615;53.602;11.418;2023-03-16T13:40:21;101545.09;;;10.71;40.64
3206;BME280;1615;53.602;11.418;2023-03-16T13:42:48;101543.44;;;10.95;40.94
3206;BME280;1615;53.602;11.418;2023-03-16T13:45:31;101525.88;;;10.96;40.74
3206;BME280;1615;53.602;11.418;2023-03-16T13:47:58;101519.91;;;10.59;41.81
3206;BME280;1615;53.602;11.418;2023-03-16T13:50:24;101531.44;;;10.46;42.69
3206;BME280;1615;53.602;11.418;2023-03-16T13:52:56;101524.84;;;10.62;43.74
3206;BME280;1615;53.602;11.418;2023-03-16T13:55:29;101496.06;;;10.54;44.04
3206;BME280;1615;53.602;11.418;2023-03-16T13:57:55;101512.44;;;10.84;42.90
3206;BME280;1615;53.602;11.418;2023-03-16T14:00:23;101505.06;;;10.75;43.04
3206;BME280;1615;53.602;11.418;2023-03-16T14:02:55;101472.75;;;10.37;41.43
3206;BME280;1615;53.602;11.418;2023-03-16T14:05:27;101495.78;;;10.51;42.20
3206;BME280;1615;53.602;11.418;2023-03-16T14:07:55;101487.25;;;10.42;42.48
3206;BME280;1615;53.602;11.418;2023-03-16T14:10:29;101477.41;;;10.36;42.69
3206;BME280;1615;53.602;11.418;2023-03-16T14:12:57;101483.16;;;10.45;43.08
3206;BME280;1615;53.602;11.418;2023-03-16T14:15:26;101482.63;;;10.53;43.48